createdAt,value
2019-01-26T00:00:25.074Z,-0.60
2019-01-26T00:02:53.602Z,-0.70
2019-01-26T00:05:20.319Z,-0.80
2019-01-26T00:07:46.635Z,-0.70
2019-01-26T00:10:13.071Z,-0.70
2019-01-26T00:12:39.673Z,-0.80
2019-01-26T00:15:09.597Z,-0.70
2019-01-26T00:17:35.926Z,-0.60
2019-01-26T00:20:06.326Z,-0.70
2019-01-26T00:22:32.715Z,-0.70
2019-01-26T00:24:59.104Z,-0.60
2019-01-26T00:27:25.493Z,-0.70
2019-01-26T00:29:52.131Z,-0.50
2019-01-26T00:32:18.774Z,-0.40
2019-01-26T00:34:46.610Z,-0.40
2019-01-26T00:37:12.941Z,-0.40
2019-01-26T00:39:39.254Z,-0.30
2019-01-26T00:42:05.574Z,-0.30
2019-01-26T00:44:31.889Z,-0.30
2019-01-26T00:46:58.222Z,-0.20
2019-01-26T00:49:24.810Z,-0.20
2019-01-26T00:51:51.145Z,-0.20
2019-01-26T00:54:17.449Z,0.00
2019-01-26T00:56:43.812Z,0.20
2019-01-26T00:59:10.202Z,0.50
2019-01-26T01:01:36.807Z,0.60
2019-01-26T01:04:03.830Z,0.70
2019-01-26T01:06:30.473Z,0.90
2019-01-26T01:08:56.806Z,1.00
2019-01-26T01:11:23.330Z,1.00
2019-01-26T01:13:49.930Z,1.10
2019-01-26T01:16:16.219Z,1.20
2019-01-26T01:18:42.561Z,1.30
2019-01-26T01:21:09.245Z,1.40
2019-01-26T01:23:35.688Z,1.30
2019-01-26T01:26:02.286Z,1.40
2019-01-26T01:28:28.589Z,1.20
2019-01-26T01:30:54.946Z,1.20
2019-01-26T01:33:21.305Z,1.00
2019-01-26T01:35:47.932Z,1.00
2019-01-26T01:38:14.362Z,0.90
2019-01-26T01:40:41.067Z,0.80
2019-01-26T01:43:07.655Z,0.70
2019-01-26T01:45:33.992Z,0.60
2019-01-26T01:48:00.320Z,0.60
2019-01-26T01:50:26.901Z,0.70
2019-01-26T01:52:53.513Z,0.70
2019-01-26T01:55:20.069Z,0.70
2019-01-26T01:57:46.406Z,0.60
2019-01-26T02:00:20.305Z,0.80
2019-01-26T02:02:47.005Z,0.80
2019-01-26T02:05:13.598Z,0.80
2019-01-26T02:07:39.913Z,0.70
2019-01-26T02:10:10.331Z,0.70
2019-01-26T02:12:36.895Z,0.80
2019-01-26T02:15:06.229Z,0.90
2019-01-26T02:17:32.812Z,0.90
2019-01-26T02:19:59.393Z,0.90
2019-01-26T02:22:26.072Z,1.00
2019-01-26T02:24:52.681Z,1.00
2019-01-26T02:27:19.374Z,1.10
2019-01-26T02:29:45.724Z,1.10
2019-01-26T02:32:12.057Z,1.20
2019-01-26T02:34:38.684Z,1.30
2019-01-26T02:37:05.010Z,1.30
2019-01-26T02:39:31.344Z,1.30
2019-01-26T02:41:57.645Z,1.20
2019-01-26T02:44:24.351Z,1.30
2019-01-26T02:46:57.793Z,1.30
2019-01-26T02:49:18.935Z,1.30
2019-01-26T02:51:45.496Z,1.20
2019-01-26T02:54:11.828Z,1.30
2019-01-26T02:56:38.192Z,1.20
2019-01-26T02:59:04.931Z,1.00
2019-01-26T03:01:31.210Z,0.90
2019-01-26T03:03:57.590Z,0.80
2019-01-26T03:06:23.919Z,0.70
2019-01-26T03:08:50.451Z,0.70
2019-01-26T03:11:17.068Z,0.70
2019-01-26T03:13:43.446Z,0.70
2019-01-26T03:16:10.150Z,0.60
2019-01-26T03:18:36.529Z,0.60
2019-01-26T03:21:02.922Z,0.70
2019-01-26T03:23:29.536Z,0.60
2019-01-26T03:25:55.862Z,0.70
2019-01-26T03:28:23.196Z,0.80
2019-01-26T03:30:49.537Z,0.80
2019-01-26T03:33:15.847Z,0.70
2019-01-26T03:35:42.189Z,0.80
2019-01-26T03:38:08.486Z,0.80
2019-01-26T03:40:34.795Z,0.80
2019-01-26T03:43:01.083Z,1.00
2019-01-26T03:45:27.391Z,1.00
2019-01-26T03:47:53.743Z,1.00
2019-01-26T03:50:21.042Z,1.10
2019-01-26T03:52:47.654Z,1.00
2019-01-26T03:55:19.811Z,1.10
2019-01-26T03:57:46.437Z,1.00
2019-01-26T04:00:20.169Z,0.90
2019-01-26T04:02:46.481Z,0.90
2019-01-26T04:05:13.024Z,1.00
2019-01-26T04:07:39.351Z,1.10
2019-01-26T04:10:09.499Z,1.40
2019-01-26T04:12:36.181Z,1.40
2019-01-26T04:15:07.119Z,1.40
2019-01-26T04:17:34.684Z,1.60
2019-01-26T04:20:01.769Z,1.60
2019-01-26T04:22:28.168Z,1.40
2019-01-26T04:24:54.532Z,1.20
2019-01-26T04:27:21.149Z,1.20
2019-01-26T04:29:47.775Z,1.10
2019-01-26T04:32:14.097Z,1.10
2019-01-26T04:34:40.441Z,1.30
2019-01-26T04:37:07.009Z,1.30
2019-01-26T04:39:33.588Z,1.40
2019-01-26T04:41:59.919Z,1.30
2019-01-26T04:44:26.225Z,1.50
2019-01-26T04:46:52.551Z,1.50
2019-01-26T04:49:19.136Z,1.70
2019-01-26T04:51:45.733Z,1.50
2019-01-26T04:54:12.284Z,1.50
2019-01-26T04:56:38.645Z,1.70
2019-01-26T04:59:04.951Z,1.70
2019-01-26T05:01:31.291Z,1.80
2019-01-26T05:03:57.878Z,1.50
2019-01-26T05:06:24.452Z,1.50
2019-01-26T05:08:50.829Z,1.70
2019-01-26T05:11:17.197Z,1.50
2019-01-26T05:13:43.786Z,1.60
2019-01-26T05:16:10.105Z,1.40
2019-01-26T05:18:36.423Z,1.40
2019-01-26T05:21:02.948Z,1.40
2019-01-26T05:23:29.509Z,1.40
2019-01-26T05:25:55.839Z,1.40
2019-01-26T05:28:22.399Z,1.50
2019-01-26T05:30:48.743Z,1.50
2019-01-26T05:33:15.043Z,1.50
2019-01-26T05:35:41.414Z,1.40
2019-01-26T05:38:08.080Z,1.30
2019-01-26T05:40:34.691Z,1.30
2019-01-26T05:43:01.283Z,1.20
2019-01-26T05:45:27.885Z,1.30
2019-01-26T05:47:54.473Z,1.40
2019-01-26T05:50:23.392Z,1.40
2019-01-26T05:52:49.929Z,1.50
2019-01-26T05:55:16.239Z,1.40
2019-01-26T05:57:42.858Z,1.50
2019-01-26T06:00:17.432Z,1.50
2019-01-26T06:02:43.752Z,1.60
2019-01-26T06:05:10.279Z,1.70
2019-01-26T06:07:36.924Z,1.60
2019-01-26T06:10:06.434Z,1.60
2019-01-26T06:12:32.765Z,1.50
2019-01-26T06:14:59.078Z,1.60
2019-01-26T06:17:25.639Z,1.60
2019-01-26T06:19:52.179Z,1.60
2019-01-26T06:22:18.742Z,1.50
2019-01-26T06:24:45.073Z,1.50
2019-01-26T06:27:11.402Z,1.60
2019-01-26T06:29:37.826Z,1.70
2019-01-26T06:32:04.155Z,1.70
2019-01-26T06:34:30.483Z,1.90
2019-01-26T06:36:56.799Z,1.80
2019-01-26T06:39:23.161Z,1.80
2019-01-26T06:41:49.509Z,1.90
2019-01-26T06:44:15.826Z,1.90
2019-01-26T06:46:42.457Z,1.90
2019-01-26T06:49:09.219Z,2.10
2019-01-26T06:51:35.823Z,2.00
2019-01-26T06:54:02.427Z,2.10
2019-01-26T06:56:29.006Z,2.20
2019-01-26T06:58:55.350Z,2.10
2019-01-26T07:01:25.798Z,2.10
2019-01-26T07:03:52.115Z,2.10
2019-01-26T07:06:20.573Z,2.20
2019-01-26T07:08:48.300Z,2.10
2019-01-26T07:11:14.609Z,2.20
2019-01-26T07:13:41.680Z,2.20
2019-01-26T07:16:08.092Z,2.20
2019-01-26T07:18:34.691Z,2.30
2019-01-26T07:21:01.082Z,2.30
2019-01-26T07:23:27.618Z,2.30
2019-01-26T07:25:54.212Z,2.30
2019-01-26T07:28:21.567Z,2.20
2019-01-26T07:30:48.164Z,2.30
2019-01-26T07:33:14.533Z,2.30
2019-01-26T07:35:41.172Z,2.30
2019-01-26T07:38:13.481Z,2.30
2019-01-26T07:40:36.008Z,2.30
2019-01-26T07:43:02.341Z,2.50
2019-01-26T07:45:28.759Z,2.40
2019-01-26T07:47:55.184Z,2.40
2019-01-26T07:50:24.785Z,2.40
2019-01-26T07:52:51.522Z,2.50
2019-01-26T07:55:19.150Z,2.40
2019-01-26T07:57:45.635Z,2.40
2019-01-26T08:00:17.149Z,2.50
2019-01-26T08:02:43.518Z,2.50
2019-01-26T08:05:10.808Z,2.50
2019-01-26T08:07:37.513Z,2.40
2019-01-26T08:10:09.465Z,2.40
2019-01-26T08:12:36.058Z,2.40
2019-01-26T08:15:07.385Z,2.40
2019-01-26T08:17:34.000Z,2.30
2019-01-26T08:20:00.625Z,2.30
2019-01-26T08:22:27.324Z,2.20
2019-01-26T08:24:53.938Z,2.30
2019-01-26T08:27:20.256Z,2.30
2019-01-26T08:29:46.578Z,2.10
2019-01-26T08:32:13.141Z,2.10
2019-01-26T08:34:39.747Z,2.00
2019-01-26T08:37:06.189Z,2.00
2019-01-26T08:39:32.518Z,2.00
2019-01-26T08:41:59.085Z,2.00
2019-01-26T08:44:25.677Z,2.10
2019-01-26T08:46:52.306Z,2.00
2019-01-26T08:49:18.664Z,2.00
2019-01-26T08:51:44.987Z,2.10
2019-01-26T08:54:11.309Z,2.10
2019-01-26T08:56:37.663Z,2.10
2019-01-26T08:59:04.120Z,2.10
2019-01-26T09:01:30.447Z,2.10
2019-01-26T09:04:04.929Z,2.20
2019-01-26T09:06:32.181Z,2.20
2019-01-26T09:08:58.829Z,2.10
2019-01-26T09:11:25.258Z,2.10
2019-01-26T09:13:51.588Z,2.10
2019-01-26T09:16:17.915Z,2.30
2019-01-26T09:18:44.286Z,2.20
2019-01-26T09:21:11.021Z,2.30
2019-01-26T09:23:37.372Z,2.30
2019-01-26T09:26:03.996Z,2.40
2019-01-26T09:28:30.608Z,2.30
2019-01-26T09:30:56.951Z,2.30
2019-01-26T09:33:23.517Z,2.30
2019-01-26T09:35:49.851Z,2.40
2019-01-26T09:38:16.145Z,2.50
2019-01-26T09:40:42.736Z,2.50
2019-01-26T09:43:09.330Z,2.50
2019-01-26T09:45:36.013Z,2.50
2019-01-26T09:48:03.682Z,2.50
2019-01-26T09:50:30.253Z,2.60
2019-01-26T09:52:56.647Z,2.60
2019-01-26T09:55:23.011Z,2.70
2019-01-26T09:57:49.640Z,2.70
2019-01-26T10:00:24.199Z,2.80
2019-01-26T10:02:50.542Z,2.90
2019-01-26T10:05:17.712Z,2.80
2019-01-26T10:07:44.036Z,2.80
2019-01-26T10:10:15.548Z,2.80
2019-01-26T10:12:41.939Z,2.70
2019-01-26T10:15:13.615Z,2.80
2019-01-26T10:17:45.727Z,2.80
2019-01-26T10:20:16.840Z,2.80
2019-01-26T10:22:43.435Z,2.70
2019-01-26T10:25:12.778Z,2.80
2019-01-26T10:27:39.171Z,2.80
2019-01-26T10:30:14.277Z,2.80
2019-01-26T10:32:40.600Z,2.80
2019-01-26T10:35:07.223Z,2.80
2019-01-26T10:37:33.690Z,2.90
2019-01-26T10:40:00.529Z,2.90
2019-01-26T10:42:27.251Z,2.90
2019-01-26T10:44:54.194Z,2.80
2019-01-26T10:47:21.341Z,2.90
2019-01-26T10:49:47.998Z,2.90
2019-01-26T10:52:14.331Z,2.70
2019-01-26T10:54:40.905Z,2.90
2019-01-26T10:57:07.373Z,2.90
2019-01-26T10:59:33.959Z,2.70
2019-01-26T11:02:00.324Z,2.80
2019-01-26T11:04:26.626Z,2.90
2019-01-26T11:06:53.196Z,2.80
2019-01-26T11:09:19.540Z,2.90
2019-01-26T11:11:46.138Z,3.00
2019-01-26T11:14:12.509Z,2.90
2019-01-26T11:16:39.112Z,2.90
2019-01-26T11:19:08.045Z,3.00
2019-01-26T11:21:34.024Z,2.90
2019-01-26T11:24:00.563Z,2.90
2019-01-26T11:26:27.188Z,3.10
2019-01-26T11:28:53.478Z,3.00
2019-01-26T11:31:20.417Z,3.10
2019-01-26T11:33:46.728Z,3.30
2019-01-26T11:36:13.833Z,3.30
2019-01-26T11:38:40.210Z,3.50
2019-01-26T11:41:06.632Z,3.50
2019-01-26T11:43:32.941Z,3.30
2019-01-26T11:46:21.613Z,3.60
2019-01-26T11:48:48.004Z,3.60
2019-01-26T11:51:16.214Z,3.60
2019-01-26T11:53:42.859Z,4.00
2019-01-26T11:56:14.339Z,4.30
2019-01-26T11:58:41.078Z,4.60
2019-01-26T12:01:12.234Z,4.50
2019-01-26T12:03:40.812Z,4.30
2019-01-26T12:06:11.936Z,4.40
2019-01-26T12:08:38.278Z,4.40
2019-01-26T12:11:04.852Z,4.60
2019-01-26T12:13:31.467Z,4.70
2019-01-26T12:15:58.316Z,4.70
2019-01-26T12:18:24.750Z,4.90
2019-01-26T12:20:51.088Z,4.60
2019-01-26T12:23:17.737Z,5.00
2019-01-26T12:25:44.023Z,5.10
2019-01-26T12:28:10.376Z,5.20
2019-01-26T12:30:36.684Z,5.20
2019-01-26T12:33:03.276Z,5.00
2019-01-26T12:35:30.494Z,4.80
2019-01-26T12:37:57.328Z,4.80
2019-01-26T12:40:23.654Z,4.80
2019-01-26T12:42:50.218Z,4.70
2019-01-26T12:45:19.738Z,4.70
2019-01-26T12:47:46.075Z,4.70
2019-01-26T12:50:12.605Z,4.70
2019-01-26T12:52:40.610Z,4.80
2019-01-26T12:55:12.129Z,4.50
2019-01-26T12:57:38.439Z,4.40
2019-01-26T13:00:10.822Z,4.80
2019-01-26T13:02:37.458Z,4.80
2019-01-26T13:05:06.193Z,4.90
2019-01-26T13:07:32.571Z,4.80
2019-01-26T13:09:59.227Z,4.70
2019-01-26T13:12:25.525Z,4.40
2019-01-26T13:14:52.442Z,4.30
2019-01-26T13:17:18.775Z,4.40
2019-01-26T13:19:45.224Z,4.30
2019-01-26T13:22:12.207Z,4.40
2019-01-26T13:24:38.790Z,4.30
2019-01-26T13:27:05.170Z,4.40
2019-01-26T13:29:31.540Z,4.30
2019-01-26T13:31:58.195Z,4.30
2019-01-26T13:34:24.515Z,4.20
2019-01-26T13:36:51.109Z,4.20
2019-01-26T13:39:17.448Z,4.30
2019-01-26T13:41:43.765Z,4.20
2019-01-26T13:44:10.284Z,4.20
2019-01-26T13:46:38.807Z,4.10
2019-01-26T13:49:05.472Z,4.00
2019-01-26T13:51:32.380Z,4.10
2019-01-26T13:53:59.154Z,4.00
2019-01-26T13:56:25.464Z,4.10
2019-01-26T13:58:52.022Z,4.10
2019-01-26T14:01:18.424Z,4.10
2019-01-26T14:03:45.029Z,4.20
2019-01-26T14:06:11.632Z,4.10
2019-01-26T14:08:37.965Z,4.20
2019-01-26T14:11:04.476Z,4.10
2019-01-26T14:13:30.901Z,4.10
2019-01-26T14:15:57.230Z,4.20
2019-01-26T14:18:23.810Z,4.30
2019-01-26T14:20:50.378Z,4.30
2019-01-26T14:23:16.728Z,4.30
2019-01-26T14:25:43.321Z,4.30
2019-01-26T14:28:09.636Z,4.40
2019-01-26T14:30:40.787Z,4.40
2019-01-26T14:33:07.375Z,4.40
2019-01-26T14:35:33.753Z,4.40
2019-01-26T14:38:00.162Z,4.30
2019-01-26T14:40:26.482Z,4.30
2019-01-26T14:42:54.306Z,4.30
2019-01-26T14:45:21.376Z,4.30
2019-01-26T14:47:47.693Z,4.20
2019-01-26T14:50:16.476Z,4.20
2019-01-26T14:52:43.271Z,4.30
2019-01-26T14:55:23.670Z,4.40
2019-01-26T14:57:50.232Z,4.20
2019-01-26T15:00:27.633Z,4.20
2019-01-26T15:02:54.125Z,4.20
2019-01-26T15:05:20.616Z,4.20
2019-01-26T15:07:47.349Z,4.20
2019-01-26T15:10:14.054Z,4.20
2019-01-26T15:12:40.510Z,4.20
2019-01-26T15:15:11.711Z,4.30
2019-01-26T15:17:38.618Z,4.20
2019-01-26T15:20:11.109Z,4.20
2019-01-26T15:22:37.766Z,4.20
2019-01-26T15:25:07.363Z,4.20
2019-01-26T15:27:34.923Z,4.30
2019-01-26T15:30:01.699Z,4.30
2019-01-26T15:32:29.342Z,4.20
2019-01-26T15:34:55.682Z,4.30
2019-01-26T15:37:22.258Z,4.30
2019-01-26T15:39:48.831Z,4.20
2019-01-26T15:42:15.411Z,4.30
2019-01-26T15:44:41.790Z,4.30
2019-01-26T15:47:08.227Z,4.30
2019-01-26T15:49:34.803Z,4.30
2019-01-26T15:52:01.124Z,4.30
2019-01-26T15:54:27.710Z,4.30
2019-01-26T15:56:53.998Z,4.30
2019-01-26T15:59:20.581Z,4.30
2019-01-26T16:01:46.914Z,4.30
2019-01-26T16:04:13.242Z,4.30
2019-01-26T16:06:39.549Z,4.30
2019-01-26T16:09:06.788Z,4.30
2019-01-26T16:11:34.221Z,4.30
2019-01-26T16:14:00.871Z,4.30
2019-01-26T16:16:27.505Z,4.30
2019-01-26T16:18:54.090Z,4.30
2019-01-26T16:21:20.692Z,4.30
2019-01-26T16:23:47.044Z,4.20
2019-01-26T16:26:13.677Z,4.20
2019-01-26T16:28:40.056Z,4.30
2019-01-26T16:31:06.641Z,4.30
2019-01-26T16:33:33.263Z,4.30
2019-01-26T16:35:59.638Z,4.30
2019-01-26T16:38:26.185Z,4.30
2019-01-26T16:40:52.874Z,4.30
2019-01-26T16:43:19.459Z,4.40
2019-01-26T16:45:46.104Z,4.40
2019-01-26T16:48:12.874Z,4.40
2019-01-26T16:50:39.229Z,4.40
2019-01-26T16:53:05.572Z,4.40
2019-01-26T16:55:31.979Z,4.50
2019-01-26T16:57:58.573Z,4.50
2019-01-26T17:00:32.615Z,4.50
2019-01-26T17:02:59.278Z,4.50
2019-01-26T17:05:26.103Z,4.50
2019-01-26T17:07:52.652Z,4.60
2019-01-26T17:10:20.742Z,4.50
2019-01-26T17:12:47.070Z,4.60
2019-01-26T17:15:13.826Z,4.50
2019-01-26T17:17:40.200Z,4.50
2019-01-26T17:20:21.019Z,4.50
2019-01-26T17:22:47.813Z,4.60
2019-01-26T17:25:14.186Z,4.60
2019-01-26T17:27:40.853Z,4.60
2019-01-26T17:30:12.354Z,4.60
2019-01-26T17:32:38.792Z,4.60
2019-01-26T17:35:08.805Z,4.70
2019-01-26T17:37:36.177Z,4.60
2019-01-26T17:40:13.079Z,4.60
2019-01-26T17:42:41.685Z,4.60
2019-01-26T17:45:10.723Z,4.70
2019-01-26T17:47:37.377Z,4.60
2019-01-26T17:50:10.187Z,4.70
2019-01-26T17:52:40.439Z,4.70
2019-01-26T17:55:09.156Z,4.70
2019-01-26T17:57:35.853Z,4.70
2019-01-26T18:00:23.403Z,4.70
2019-01-26T18:02:49.925Z,4.70
2019-01-26T18:05:16.614Z,4.70
2019-01-26T18:07:43.181Z,4.70
2019-01-26T18:10:14.933Z,4.70
2019-01-26T18:12:42.123Z,4.70
2019-01-26T18:15:12.739Z,4.80
2019-01-26T18:17:39.345Z,4.70
2019-01-26T18:20:11.080Z,4.70
2019-01-26T18:22:37.531Z,4.70
2019-01-26T18:25:07.308Z,4.70
2019-01-26T18:27:36.440Z,4.70
2019-01-26T18:30:08.626Z,4.70
2019-01-26T18:32:35.261Z,4.70
2019-01-26T18:35:02.940Z,4.70
2019-01-26T18:37:35.542Z,4.60
2019-01-26T18:40:05.071Z,4.70
2019-01-26T18:42:31.675Z,4.70
2019-01-26T18:44:58.283Z,4.70
2019-01-26T18:47:24.588Z,4.60
2019-01-26T18:49:50.944Z,4.70
2019-01-26T18:52:17.479Z,4.60
2019-01-26T18:54:44.176Z,4.70
2019-01-26T18:57:10.535Z,4.60
2019-01-26T18:59:37.097Z,4.60
2019-01-26T19:02:03.831Z,4.60
2019-01-26T19:04:31.638Z,4.60
2019-01-26T19:07:04.361Z,4.60
2019-01-26T19:09:31.203Z,4.70
2019-01-26T19:11:57.743Z,4.60
2019-01-26T19:14:24.773Z,4.60
2019-01-26T19:16:51.716Z,4.50
2019-01-26T19:19:18.058Z,4.60
2019-01-26T19:21:44.375Z,4.50
2019-01-26T19:24:11.002Z,4.50
2019-01-26T19:26:37.937Z,4.50
2019-01-26T19:29:04.454Z,4.40
2019-01-26T19:31:30.837Z,4.50
2019-01-26T19:33:57.273Z,4.50
2019-01-26T19:36:23.695Z,4.50
2019-01-26T19:38:50.055Z,4.50
2019-01-26T19:41:16.612Z,4.50
2019-01-26T19:43:42.950Z,4.50
2019-01-26T19:46:09.656Z,4.50
2019-01-26T19:48:36.295Z,4.50
2019-01-26T19:51:09.754Z,4.60
2019-01-26T19:53:32.322Z,4.60
2019-01-26T19:55:58.906Z,4.60
2019-01-26T19:58:25.747Z,4.60
2019-01-26T20:00:52.369Z,4.60
2019-01-26T20:03:19.961Z,4.70
2019-01-26T20:05:48.153Z,4.70
2019-01-26T20:08:14.794Z,4.80
2019-01-26T20:10:41.307Z,4.80
2019-01-26T20:13:07.905Z,4.80
2019-01-26T20:15:34.240Z,4.80
2019-01-26T20:18:00.802Z,4.80
2019-01-26T20:20:39.318Z,4.90
2019-01-26T20:23:05.690Z,4.90
2019-01-26T20:25:32.050Z,4.90
2019-01-26T20:27:58.491Z,4.90
2019-01-26T20:30:29.415Z,4.90
2019-01-26T20:32:55.848Z,4.90
2019-01-26T20:35:22.167Z,4.90
2019-01-26T20:37:48.769Z,5.00
2019-01-26T20:40:17.419Z,4.90
2019-01-26T20:42:44.531Z,4.90
2019-01-26T20:45:15.749Z,4.90
2019-01-26T20:47:42.049Z,4.90
2019-01-26T20:50:12.139Z,4.90
2019-01-26T20:52:38.654Z,4.90
2019-01-26T20:55:08.098Z,4.90
2019-01-26T20:57:34.677Z,4.90
2019-01-26T21:00:01.034Z,4.90
2019-01-26T21:02:27.723Z,4.90
2019-01-26T21:04:54.080Z,4.90
2019-01-26T21:07:20.714Z,4.90
2019-01-26T21:09:48.266Z,4.90
2019-01-26T21:12:14.629Z,4.90
2019-01-26T21:14:41.201Z,4.90
2019-01-26T21:17:07.568Z,4.90
2019-01-26T21:19:33.977Z,4.90
2019-01-26T21:22:00.317Z,4.90
2019-01-26T21:24:26.654Z,4.90
2019-01-26T21:26:54.234Z,4.90
2019-01-26T21:29:20.839Z,5.00
2019-01-26T21:31:47.537Z,5.00
2019-01-26T21:34:14.187Z,5.10
2019-01-26T21:36:40.797Z,5.10
2019-01-26T21:39:07.576Z,5.00
2019-01-26T21:41:35.502Z,5.10
2019-01-26T21:44:01.845Z,5.10
2019-01-26T21:46:28.194Z,5.00
2019-01-26T21:48:54.502Z,5.00
2019-01-26T21:51:20.835Z,5.00
2019-01-26T21:53:47.265Z,5.00
2019-01-26T21:56:13.594Z,5.00
2019-01-26T21:58:40.173Z,5.00
2019-01-26T22:01:06.885Z,5.00
2019-01-26T22:03:33.478Z,5.10
2019-01-26T22:06:00.092Z,5.00
2019-01-26T22:08:26.746Z,5.10
2019-01-26T22:10:53.416Z,5.10
2019-01-26T22:13:19.693Z,5.10
2019-01-26T22:15:47.490Z,5.20
2019-01-26T22:18:14.026Z,5.30
2019-01-26T22:20:41.620Z,5.20
2019-01-26T22:23:08.181Z,5.30
2019-01-26T22:25:34.738Z,5.30
2019-01-26T22:28:01.649Z,5.30
2019-01-26T22:30:30.695Z,5.30
2019-01-26T22:32:57.375Z,5.30
2019-01-26T22:35:23.969Z,5.40
2019-01-26T22:37:51.645Z,5.40
2019-01-26T22:40:30.569Z,5.50
2019-01-26T22:42:57.171Z,5.50
2019-01-26T22:45:24.603Z,5.50
2019-01-26T22:47:51.014Z,5.50
2019-01-26T22:50:25.971Z,5.50
2019-01-26T22:52:52.591Z,5.50
2019-01-26T22:55:20.211Z,5.50
2019-01-26T22:57:47.455Z,5.50
2019-01-26T23:00:47.139Z,5.50
2019-01-26T23:03:15.968Z,5.50
2019-01-26T23:06:39.536Z,5.50
2019-01-26T23:09:22.165Z,5.50
2019-01-26T23:12:17.745Z,5.60
2019-01-26T23:15:39.660Z,5.60
2019-01-26T23:18:42.025Z,5.60
2019-01-26T23:21:41.352Z,5.40
2019-01-26T23:24:46.195Z,5.40
2019-01-26T23:27:35.225Z,5.50
2019-01-26T23:30:19.515Z,5.60
2019-01-26T23:32:46.140Z,5.60
2019-01-26T23:35:12.472Z,5.60
2019-01-26T23:37:38.797Z,5.50
2019-01-26T23:40:08.217Z,5.50
2019-01-26T23:42:34.813Z,5.50
2019-01-26T23:45:01.390Z,5.40
2019-01-26T23:47:27.976Z,5.40
2019-01-26T23:49:54.562Z,5.40
2019-01-26T23:52:20.874Z,5.40
2019-01-26T23:54:49.092Z,5.40
2019-01-26T23:57:15.405Z,5.30
2019-01-26T23:59:41.756Z,5.30
